sensor_id;sensor_type;location;lat;lon;timestamp;P1;durP1;ratioP1;P2;durP2;ratioP2
76801;SDS011;66403;50.832;10.950;2023-03-14T00:00:21;0.52;;;0.40;;
76801;SDS011;66403;50.832;10.950;2023-03-14T00:05:21;0.55;;;0.40;;
76801;SDS011;66403;50.832;10.950;2023-03-14T00:10:22;1.20;;;0.60;;
76801;SDS011;66403;50.832;10.950;2023-03-14T00:15:23;0.50;;;0.40;;
76801;SDS011;66403;50.832;10.950;2023-03-14T00:20:23;1.40;;;0.35;;
76801;SDS011;66403;50.832;10.950;2023-03-14T00:25:24;0.50;;;0.40;;
76801;SDS011;66403;50.832;10.950;2023-03-14T00:30:24;0.50;;;0.35;;
76801;SDS011;66403;50.832;10.950;2023-03-14T00:35:24;1.45;;;1.35;;
76801;SDS011;66403;50.832;10.950;2023-03-14T00:40:26;0.50;;;0.40;;
76801;SDS011;66403;50.832;10.950;2023-03-14T00:45:27;2.40;;;0.50;;
76801;SDS011;66403;50.832;10.950;2023-03-14T00:50:27;1.27;;;0.55;;
76801;SDS011;66403;50.832;10.950;2023-03-14T00:55:28;0.57;;;0.40;;
76801;SDS011;66403;50.832;10.950;2023-03-14T01:00:28;0.90;;;0.30;;
76801;SDS011;66403;50.832;10.950;2023-03-14T01:05:29;1.10;;;0.70;;
76801;SDS011;66403;50.832;10.950;2023-03-14T01:10:29;0.52;;;0.30;;
76801;SDS011;66403;50.832;10.950;2023-03-14T01:15:32;0.98;;;0.50;;
76801;SDS011;66403;50.832;10.950;2023-03-14T01:20:33;0.50;;;0.40;;
76801;SDS011;66403;50.832;10.950;2023-03-14T01:25:34;0.85;;;0.65;;
76801;SDS011;66403;50.832;10.950;2023-03-14T01:30:34;0.95;;;0.50;;
76801;SDS011;66403;50.832;10.950;2023-03-14T01:35:35;3.75;;;0.90;;
76801;SDS011;66403;50.832;10.950;2023-03-14T01:40:41;0.38;;;0.38;;
76801;SDS011;66403;50.832;10.950;2023-03-14T01:46:11;0.80;;;0.40;;
76801;SDS011;66403;50.832;10.950;2023-03-14T01:51:36;1.48;;;0.40;;
76801;SDS011;66403;50.832;10.950;2023-03-14T01:56:41;0.43;;;0.40;;
76801;SDS011;66403;50.832;10.950;2023-03-14T02:01:44;0.93;;;0.40;;
76801;SDS011;66403;50.832;10.950;2023-03-14T02:06:49;0.98;;;0.50;;
76801;SDS011;66403;50.832;10.950;2023-03-14T02:11:53;0.35;;;0.35;;
76801;SDS011;66403;50.832;10.950;2023-03-14T02:17:22;1.35;;;0.70;;
76801;SDS011;66403;50.832;10.950;2023-03-14T02:22:46;0.70;;;0.40;;
76801;SDS011;66403;50.832;10.950;2023-03-14T02:27:47;3.30;;;0.75;;
76801;SDS011;66403;50.832;10.950;2023-03-14T02:32:50;0.90;;;0.52;;
76801;SDS011;66403;50.832;10.950;2023-03-14T02:42:57;1.67;;;0.55;;
76801;SDS011;66403;50.832;10.950;2023-03-14T02:48:00;0.77;;;0.50;;
76801;SDS011;66403;50.832;10.950;2023-03-14T02:53:06;2.17;;;0.65;;
76801;SDS011;66403;50.832;10.950;2023-03-14T02:58:07;0.95;;;0.47;;
76801;SDS011;66403;50.832;10.950;2023-03-14T03:03:08;0.52;;;0.50;;
76801;SDS011;66403;50.832;10.950;2023-03-14T03:08:08;2.28;;;1.00;;
76801;SDS011;66403;50.832;10.950;2023-03-14T03:13:10;1.60;;;0.60;;
76801;SDS011;66403;50.832;10.950;2023-03-14T03:18:11;2.00;;;0.60;;
76801;SDS011;66403;50.832;10.950;2023-03-14T03:23:12;2.00;;;0.95;;
76801;SDS011;66403;50.832;10.950;2023-03-14T03:28:12;2.83;;;0.88;;
76801;SDS011;66403;50.832;10.950;2023-03-14T03:33:13;4.00;;;0.57;;
76801;SDS011;66403;50.832;10.950;2023-03-14T03:38:17;1.95;;;0.77;;
76801;SDS011;66403;50.832;10.950;2023-03-14T03:43:21;1.15;;;0.75;;
76801;SDS011;66403;50.832;10.950;2023-03-14T03:48:23;2.10;;;0.80;;
76801;SDS011;66403;50.832;10.950;2023-03-14T03:53:24;7.50;;;1.10;;
76801;SDS011;66403;50.832;10.950;2023-03-14T03:58:24;2.38;;;0.60;;
76801;SDS011;66403;50.832;10.950;2023-03-14T04:03:25;2.55;;;0.75;;
76801;SDS011;66403;50.832;10.950;2023-03-14T04:08:27;1.63;;;0.50;;
76801;SDS011;66403;50.832;10.950;2023-03-14T04:13:28;2.10;;;0.82;;
76801;SDS011;66403;50.832;10.950;2023-03-14T04:18:29;1.13;;;0.57;;
76801;SDS011;66403;50.832;10.950;2023-03-14T04:23:30;2.00;;;0.95;;
76801;SDS011;66403;50.832;10.950;2023-03-14T04:28:31;1.67;;;0.40;;
76801;SDS011;66403;50.832;10.950;2023-03-14T04:33:32;1.38;;;0.60;;
76801;SDS011;66403;50.832;10.950;2023-03-14T04:38:32;0.73;;;0.47;;
76801;SDS011;66403;50.832;10.950;2023-03-14T04:43:33;1.48;;;0.70;;
76801;SDS011;66403;50.832;10.950;2023-03-14T04:48:40;1.83;;;0.50;;
76801;SDS011;66403;50.832;10.950;2023-03-14T04:53:41;1.73;;;0.50;;
76801;SDS011;66403;50.832;10.950;2023-03-14T04:58:44;2.78;;;1.02;;
76801;SDS011;66403;50.832;10.950;2023-03-14T05:03:48;0.85;;;0.45;;
76801;SDS011;66403;50.832;10.950;2023-03-14T05:09:07;0.82;;;0.30;;
76801;SDS011;66403;50.832;10.950;2023-03-14T05:14:07;0.85;;;0.50;;
76801;SDS011;66403;50.832;10.950;2023-03-14T05:19:14;3.22;;;0.57;;
76801;SDS011;66403;50.832;10.950;2023-03-14T05:24:33;3.35;;;0.50;;
76801;SDS011;66403;50.832;10.950;2023-03-14T05:29:36;2.30;;;0.73;;
76801;SDS011;66403;50.832;10.950;2023-03-14T05:34:44;3.85;;;0.60;;
76801;SDS011;66403;50.832;10.950;2023-03-14T05:39:54;4.40;;;0.50;;
76801;SDS011;66403;50.832;10.950;2023-03-14T05:45:08;0.90;;;0.73;;
76801;SDS011;66403;50.832;10.950;2023-03-14T05:50:38;0.75;;;0.70;;
76801;SDS011;66403;50.832;10.950;2023-03-14T05:55:52;1.05;;;0.47;;
76801;SDS011;66403;50.832;10.950;2023-03-14T06:01:06;2.92;;;0.55;;
76801;SDS011;66403;50.832;10.950;2023-03-14T06:06:29;1.48;;;0.60;;
76801;SDS011;66403;50.832;10.950;2023-03-14T06:11:33;2.65;;;0.77;;
76801;SDS011;66403;50.832;10.950;2023-03-14T06:16:34;1.13;;;0.50;;
76801;SDS011;66403;50.832;10.950;2023-03-14T06:21:35;4.45;;;0.75;;
76801;SDS011;66403;50.832;10.950;2023-03-14T06:26:35;1.90;;;0.57;;
76801;SDS011;66403;50.832;10.950;2023-03-14T06:31:36;3.88;;;0.70;;
76801;SDS011;66403;50.832;10.950;2023-03-14T06:36:39;8.02;;;3.33;;
76801;SDS011;66403;50.832;10.950;2023-03-14T06:41:40;3.38;;;0.50;;
76801;SDS011;66403;50.832;10.950;2023-03-14T06:46:43;0.20;;;0.13;;
76801;SDS011;66403;50.832;10.950;2023-03-14T06:51:43;2.75;;;0.60;;
76801;SDS011;66403;50.832;10.950;2023-03-14T06:56:45;2.00;;;0.47;;
76801;SDS011;66403;50.832;10.950;2023-03-14T07:01:46;1.98;;;0.60;;
76801;SDS011;66403;50.832;10.950;2023-03-14T07:06:48;2.50;;;0.65;;
76801;SDS011;66403;50.832;10.950;2023-03-14T07:11:49;3.38;;;0.40;;
76801;SDS011;66403;50.832;10.950;2023-03-14T07:16:51;2.78;;;0.70;;
76801;SDS011;66403;50.832;10.950;2023-03-14T07:21:51;1.05;;;0.40;;
76801;SDS011;66403;50.832;10.950;2023-03-14T07:26:57;0.82;;;0.30;;
76801;SDS011;66403;50.832;10.950;2023-03-14T07:31:57;1.55;;;0.47;;
76801;SDS011;66403;50.832;10.950;2023-03-14T07:36:58;1.05;;;0.43;;
76801;SDS011;66403;50.832;10.950;2023-03-14T07:41:58;1.30;;;0.28;;
76801;SDS011;66403;50.832;10.950;2023-03-14T07:46:59;0.90;;;0.40;;
76801;SDS011;66403;50.832;10.950;2023-03-14T07:51:59;3.20;;;1.23;;
76801;SDS011;66403;50.832;10.950;2023-03-14T07:57:00;2.33;;;0.50;;
76801;SDS011;66403;50.832;10.950;2023-03-14T08:02:00;0.82;;;0.40;;
76801;SDS011;66403;50.832;10.950;2023-03-14T08:07:01;3.70;;;1.58;;
76801;SDS011;66403;50.832;10.950;2023-03-14T08:12:01;0.30;;;0.30;;
76801;SDS011;66403;50.832;10.950;2023-03-14T08:17:02;1.33;;;0.38;;
76801;SDS011;66403;50.832;10.950;2023-03-14T08:22:02;0.60;;;0.20;;
76801;SDS011;66403;50.832;10.950;2023-03-14T08:27:03;1.80;;;0.45;;
76801;SDS011;66403;50.832;10.950;2023-03-14T08:32:03;1.45;;;0.75;;
76801;SDS011;66403;50.832;10.950;2023-03-14T08:37:04;0.22;;;0.20;;
76801;SDS011;66403;50.832;10.950;2023-03-14T08:42:05;0.30;;;0.20;;
76801;SDS011;66403;50.832;10.950;2023-03-14T08:47:05;0.20;;;0.20;;
76801;SDS011;66403;50.832;10.950;2023-03-14T08:52:06;0.20;;;0.10;;
76801;SDS011;66403;50.832;10.950;2023-03-14T08:57:06;0.13;;;0.10;;
76801;SDS011;66403;50.832;10.950;2023-03-14T09:02:08;0.28;;;0.10;;
76801;SDS011;66403;50.832;10.950;2023-03-14T09:07:10;0.10;;;0.10;;
76801;SDS011;66403;50.832;10.950;2023-03-14T09:12:11;1.25;;;0.20;;
76801;SDS011;66403;50.832;10.950;2023-03-14T09:17:11;1.02;;;1.00;;
76801;SDS011;66403;50.832;10.950;2023-03-14T09:22:12;0.28;;;0.10;;
76801;SDS011;66403;50.832;10.950;2023-03-14T09:27:12;0.30;;;0.28;;
76801;SDS011;66403;50.832;10.950;2023-03-14T09:32:13;0.88;;;0.13;;
76801;SDS011;66403;50.832;10.950;2023-03-14T09:37:13;0.20;;;0.17;;
76801;SDS011;66403;50.832;10.950;2023-03-14T09:42:16;1.25;;;0.20;;
76801;SDS011;66403;50.832;10.950;2023-03-14T09:47:19;1.25;;;0.35;;
76801;SDS011;66403;50.832;10.950;2023-03-14T09:57:27;0.20;;;0.20;;
76801;SDS011;66403;50.832;10.950;2023-03-14T10:02:34;0.38;;;0.20;;
76801;SDS011;66403;50.832;10.950;2023-03-14T10:07:35;0.32;;;0.10;;
76801;SDS011;66403;50.832;10.950;2023-03-14T10:12:37;0.25;;;0.22;;
76801;SDS011;66403;50.832;10.950;2023-03-14T10:17:59;1.05;;;0.65;;
76801;SDS011;66403;50.832;10.950;2023-03-14T10:23:02;0.93;;;0.57;;
76801;SDS011;66403;50.832;10.950;2023-03-14T10:28:04;0.38;;;0.20;;
76801;SDS011;66403;50.832;10.950;2023-03-14T10:33:15;0.20;;;0.20;;
76801;SDS011;66403;50.832;10.950;2023-03-14T10:38:22;0.30;;;0.20;;
76801;SDS011;66403;50.832;10.950;2023-03-14T10:43:25;1.88;;;0.30;;
76801;SDS011;66403;50.832;10.950;2023-03-14T10:53:44;0.70;;;0.30;;
76801;SDS011;66403;50.832;10.950;2023-03-14T10:59:14;0.17;;;0.10;;
76801;SDS011;66403;50.832;10.950;2023-03-14T11:15:14;0.10;;;0.10;;
76801;SDS011;66403;50.832;10.950;2023-03-14T11:26:13;0.25;;;0.10;;
76801;SDS011;66403;50.832;10.950;2023-03-14T11:31:20;0.10;;;0.10;;
76801;SDS011;66403;50.832;10.950;2023-03-14T11:36:27;0.05;;;0.00;;
76801;SDS011;66403;50.832;10.950;2023-03-14T11:41:40;0.75;;;0.38;;
76801;SDS011;66403;50.832;10.950;2023-03-14T11:46:43;0.30;;;0.20;;
76801;SDS011;66403;50.832;10.950;2023-03-14T11:57:01;1.00;;;0.30;;
76801;SDS011;66403;50.832;10.950;2023-03-14T12:02:03;0.45;;;0.30;;
76801;SDS011;66403;50.832;10.950;2023-03-14T12:07:27;0.25;;;0.10;;
76801;SDS011;66403;50.832;10.950;2023-03-14T12:12:32;0.13;;;0.10;;
76801;SDS011;66403;50.832;10.950;2023-03-14T12:17:35;0.40;;;0.20;;
76801;SDS011;66403;50.832;10.950;2023-03-14T12:22:41;2.35;;;0.30;;
76801;SDS011;66403;50.832;10.950;2023-03-14T12:38:13;0.17;;;0.13;;
76801;SDS011;66403;50.832;10.950;2023-03-14T12:43:34;0.20;;;0.10;;
76801;SDS011;66403;50.832;10.950;2023-03-14T12:48:34;0.22;;;0.22;;
76801;SDS011;66403;50.832;10.950;2023-03-14T12:53:48;0.85;;;0.10;;
76801;SDS011;66403;50.832;10.950;2023-03-14T12:59:20;1.65;;;0.10;;
76801;SDS011;66403;50.832;10.950;2023-03-14T13:04:43;0.10;;;0.10;;
76801;SDS011;66403;50.832;10.950;2023-03-14T13:09:53;0.10;;;0.08;;
76801;SDS011;66403;50.832;10.950;2023-03-14T13:14:57;0.17;;;0.10;;
76801;SDS011;66403;50.832;10.950;2023-03-14T13:19:59;0.35;;;0.20;;
76801;SDS011;66403;50.832;10.950;2023-03-14T13:25:04;0.38;;;0.20;;
76801;SDS011;66403;50.832;10.950;2023-03-14T13:30:16;0.40;;;0.30;;
76801;SDS011;66403;50.832;10.950;2023-03-14T13:35:20;0.38;;;0.22;;
76801;SDS011;66403;50.832;10.950;2023-03-14T13:40:30;0.30;;;0.10;;
76801;SDS011;66403;50.832;10.950;2023-03-14T13:45:40;0.17;;;0.17;;
76801;SDS011;66403;50.832;10.950;2023-03-14T13:50:44;0.20;;;0.10;;
76801;SDS011;66403;50.832;10.950;2023-03-14T13:55:46;0.00;;;0.00;;
76801;SDS011;66403;50.832;10.950;2023-03-14T14:00:53;0.10;;;0.10;;
76801;SDS011;66403;50.832;10.950;2023-03-14T14:05:55;0.20;;;0.20;;
76801;SDS011;66403;50.832;10.950;2023-03-14T14:10:58;0.20;;;0.13;;
76801;SDS011;66403;50.832;10.950;2023-03-14T14:16:00;0.10;;;0.10;;
76801;SDS011;66403;50.832;10.950;2023-03-14T14:21:02;0.10;;;0.10;;
76801;SDS011;66403;50.832;10.950;2023-03-14T14:26:02;0.32;;;0.17;;
76801;SDS011;66403;50.832;10.950;2023-03-14T14:36:14;2.20;;;0.47;;
76801;SDS011;66403;50.832;10.950;2023-03-14T14:41:21;0.73;;;0.50;;
76801;SDS011;66403;50.832;10.950;2023-03-14T14:46:22;0.47;;;0.30;;
76801;SDS011;66403;50.832;10.950;2023-03-14T14:51:26;0.40;;;0.40;;
76801;SDS011;66403;50.832;10.950;2023-03-14T14:56:34;1.85;;;1.13;;
76801;SDS011;66403;50.832;10.950;2023-03-14T15:01:36;0.30;;;0.20;;
76801;SDS011;66403;50.832;10.950;2023-03-14T15:06:37;0.47;;;0.25;;
76801;SDS011;66403;50.832;10.950;2023-03-14T15:11:38;0.50;;;0.45;;
76801;SDS011;66403;50.832;10.950;2023-03-14T15:16:39;0.40;;;0.35;;
76801;SDS011;66403;50.832;10.950;2023-03-14T15:21:39;0.28;;;0.13;;
76801;SDS011;66403;50.832;10.950;2023-03-14T15:26:40;1.05;;;0.20;;
76801;SDS011;66403;50.832;10.950;2023-03-14T15:31:40;0.47;;;0.30;;
76801;SDS011;66403;50.832;10.950;2023-03-14T15:36:42;2.25;;;0.60;;
76801;SDS011;66403;50.832;10.950;2023-03-14T15:41:43;0.80;;;0.38;;
76801;SDS011;66403;50.832;10.950;2023-03-14T15:46:43;3.47;;;0.60;;
76801;SDS011;66403;50.832;10.950;2023-03-14T15:51:44;0.57;;;0.40;;
76801;SDS011;66403;50.832;10.950;2023-03-14T15:56:44;0.38;;;0.32;;
76801;SDS011;66403;50.832;10.950;2023-03-14T16:01:45;0.70;;;0.50;;
76801;SDS011;66403;50.832;10.950;2023-03-14T16:06:47;1.85;;;0.52;;
76801;SDS011;66403;50.832;10.950;2023-03-14T16:11:48;3.47;;;1.25;;
76801;SDS011;66403;50.832;10.950;2023-03-14T16:16:48;1.85;;;1.08;;
76801;SDS011;66403;50.832;10.950;2023-03-14T16:21:49;1.13;;;0.60;;
76801;SDS011;66403;50.832;10.950;2023-03-14T16:26:49;2.28;;;1.17;;
76801;SDS011;66403;50.832;10.950;2023-03-14T16:31:50;1.65;;;0.90;;
76801;SDS011;66403;50.832;10.950;2023-03-14T16:36:50;1.23;;;0.90;;
76801;SDS011;66403;50.832;10.950;2023-03-14T16:41:51;1.15;;;0.80;;
76801;SDS011;66403;50.832;10.950;2023-03-14T16:46:52;0.88;;;0.63;;
76801;SDS011;66403;50.832;10.950;2023-03-14T16:51:52;1.27;;;0.77;;
76801;SDS011;66403;50.832;10.950;2023-03-14T16:56:52;1.50;;;0.77;;
76801;SDS011;66403;50.832;10.950;2023-03-14T17:01:56;4.55;;;1.23;;
76801;SDS011;66403;50.832;10.950;2023-03-14T17:06:56;2.03;;;1.13;;
76801;SDS011;66403;50.832;10.950;2023-03-14T17:11:57;1.88;;;0.90;;
76801;SDS011;66403;50.832;10.950;2023-03-14T17:16:57;3.38;;;1.58;;
76801;SDS011;66403;50.832;10.950;2023-03-14T17:21:58;3.70;;;1.88;;
76801;SDS011;66403;50.832;10.950;2023-03-14T17:26:58;3.72;;;2.10;;
76801;SDS011;66403;50.832;10.950;2023-03-14T17:31:59;2.80;;;1.00;;
76801;SDS011;66403;50.832;10.950;2023-03-14T17:36:59;2.35;;;1.45;;
76801;SDS011;66403;50.832;10.950;2023-03-14T17:42:00;3.75;;;1.90;;
76801;SDS011;66403;50.832;10.950;2023-03-14T17:47:00;1.83;;;1.17;;
76801;SDS011;66403;50.832;10.950;2023-03-14T17:52:01;1.15;;;0.50;;
76801;SDS011;66403;50.832;10.950;2023-03-14T17:57:02;4.20;;;1.27;;
76801;SDS011;66403;50.832;10.950;2023-03-14T18:02:02;2.13;;;1.10;;
76801;SDS011;66403;50.832;10.950;2023-03-14T18:07:02;3.70;;;1.10;;
76801;SDS011;66403;50.832;10.950;2023-03-14T18:12:03;3.53;;;1.42;;
76801;SDS011;66403;50.832;10.950;2023-03-14T18:17:03;2.40;;;1.38;;
76801;SDS011;66403;50.832;10.950;2023-03-14T18:22:04;3.58;;;1.13;;
76801;SDS011;66403;50.832;10.950;2023-03-14T18:27:05;4.47;;;1.33;;
76801;SDS011;66403;50.832;10.950;2023-03-14T18:32:06;9.70;;;2.03;;
76801;SDS011;66403;50.832;10.950;2023-03-14T18:37:07;3.30;;;1.27;;
76801;SDS011;66403;50.832;10.950;2023-03-14T18:42:07;5.00;;;1.35;;
76801;SDS011;66403;50.832;10.950;2023-03-14T18:47:08;2.03;;;1.00;;
76801;SDS011;66403;50.832;10.950;2023-03-14T18:52:09;7.63;;;2.78;;
76801;SDS011;66403;50.832;10.950;2023-03-14T18:57:10;3.88;;;1.25;;
76801;SDS011;66403;50.832;10.950;2023-03-14T19:02:11;7.93;;;1.83;;
76801;SDS011;66403;50.832;10.950;2023-03-14T19:07:12;9.73;;;2.10;;
76801;SDS011;66403;50.832;10.950;2023-03-14T19:12:13;5.22;;;1.30;;
76801;SDS011;66403;50.832;10.950;2023-03-14T19:17:13;3.38;;;1.25;;
76801;SDS011;66403;50.832;10.950;2023-03-14T19:22:13;6.40;;;1.60;;
76801;SDS011;66403;50.832;10.950;2023-03-14T19:27:14;6.53;;;1.40;;
76801;SDS011;66403;50.832;10.950;2023-03-14T19:32:15;5.38;;;1.48;;
76801;SDS011;66403;50.832;10.950;2023-03-14T19:37:17;8.23;;;1.70;;
76801;SDS011;66403;50.832;10.950;2023-03-14T19:42:17;3.78;;;1.88;;
76801;SDS011;66403;50.832;10.950;2023-03-14T19:47:18;4.63;;;1.40;;
76801;SDS011;66403;50.832;10.950;2023-03-14T19:52:18;5.18;;;1.13;;
76801;SDS011;66403;50.832;10.950;2023-03-14T19:57:19;4.35;;;1.70;;
76801;SDS011;66403;50.832;10.950;2023-03-14T20:02:20;4.63;;;0.75;;
76801;SDS011;66403;50.832;10.950;2023-03-14T20:07:20;4.65;;;1.30;;
76801;SDS011;66403;50.832;10.950;2023-03-14T20:12:21;7.35;;;1.63;;
76801;SDS011;66403;50.832;10.950;2023-03-14T20:17:21;6.35;;;0.90;;
76801;SDS011;66403;50.832;10.950;2023-03-14T20:22:22;3.67;;;1.50;;
76801;SDS011;66403;50.832;10.950;2023-03-14T20:27:22;7.22;;;1.45;;
76801;SDS011;66403;50.832;10.950;2023-03-14T20:32:22;4.63;;;1.00;;
76801;SDS011;66403;50.832;10.950;2023-03-14T20:37:23;6.07;;;1.20;;
76801;SDS011;66403;50.832;10.950;2023-03-14T20:42:23;6.25;;;1.75;;
76801;SDS011;66403;50.832;10.950;2023-03-14T20:47:26;5.90;;;1.45;;
76801;SDS011;66403;50.832;10.950;2023-03-14T20:52:26;5.75;;;1.45;;
76801;SDS011;66403;50.832;10.950;2023-03-14T20:57:27;8.18;;;1.08;;
76801;SDS011;66403;50.832;10.950;2023-03-14T21:02:27;2.72;;;1.05;;
76801;SDS011;66403;50.832;10.950;2023-03-14T21:07:29;9.77;;;2.13;;
76801;SDS011;66403;50.832;10.950;2023-03-14T21:12:31;5.50;;;1.50;;
76801;SDS011;66403;50.832;10.950;2023-03-14T21:17:32;4.13;;;1.65;;
76801;SDS011;66403;50.832;10.950;2023-03-14T21:22:33;2.05;;;0.82;;
76801;SDS011;66403;50.832;10.950;2023-03-14T21:27:36;8.15;;;1.17;;
76801;SDS011;66403;50.832;10.950;2023-03-14T21:32:37;9.13;;;1.83;;
76801;SDS011;66403;50.832;10.950;2023-03-14T21:37:37;3.88;;;1.30;;
76801;SDS011;66403;50.832;10.950;2023-03-14T21:42:38;6.00;;;2.13;;
76801;SDS011;66403;50.832;10.950;2023-03-14T21:47:38;4.72;;;1.50;;
76801;SDS011;66403;50.832;10.950;2023-03-14T21:52:38;6.95;;;1.73;;
76801;SDS011;66403;50.832;10.950;2023-03-14T21:57:40;8.55;;;1.88;;
76801;SDS011;66403;50.832;10.950;2023-03-14T22:02:40;5.28;;;1.45;;
76801;SDS011;66403;50.832;10.950;2023-03-14T22:07:41;4.32;;;1.50;;
76801;SDS011;66403;50.832;10.950;2023-03-14T22:12:42;3.90;;;1.35;;
76801;SDS011;66403;50.832;10.950;2023-03-14T22:17:42;15.95;;;1.90;;
76801;SDS011;66403;50.832;10.950;2023-03-14T22:22:43;2.00;;;0.85;;
76801;SDS011;66403;50.832;10.950;2023-03-14T22:27:43;3.53;;;1.25;;
76801;SDS011;66403;50.832;10.950;2023-03-14T22:32:44;8.23;;;1.85;;
76801;SDS011;66403;50.832;10.950;2023-03-14T22:37:44;6.18;;;1.02;;
76801;SDS011;66403;50.832;10.950;2023-03-14T22:42:45;4.10;;;1.58;;
76801;SDS011;66403;50.832;10.950;2023-03-14T22:47:47;11.32;;;1.60;;
76801;SDS011;66403;50.832;10.950;2023-03-14T22:52:47;1.92;;;0.80;;
76801;SDS011;66403;50.832;10.950;2023-03-14T22:57:49;4.32;;;1.05;;
76801;SDS011;66403;50.832;10.950;2023-03-14T23:02:50;7.70;;;2.15;;
76801;SDS011;66403;50.832;10.950;2023-03-14T23:07:51;5.03;;;1.48;;
76801;SDS011;66403;50.832;10.950;2023-03-14T23:12:52;7.70;;;2.47;;
76801;SDS011;66403;50.832;10.950;2023-03-14T23:17:56;4.30;;;1.60;;
76801;SDS011;66403;50.832;10.950;2023-03-14T23:22:57;2.30;;;1.15;;
76801;SDS011;66403;50.832;10.950;2023-03-14T23:27:57;9.68;;;1.90;;
76801;SDS011;66403;50.832;10.950;2023-03-14T23:32:58;6.60;;;0.90;;
76801;SDS011;66403;50.832;10.950;2023-03-14T23:37:58;3.75;;;1.13;;
76801;SDS011;66403;50.832;10.950;2023-03-14T23:43:00;2.67;;;1.10;;
76801;SDS011;66403;50.832;10.950;2023-03-14T23:48:00;3.13;;;0.90;;
76801;SDS011;66403;50.832;10.950;2023-03-14T23:53:01;5.55;;;1.20;;
76801;SDS011;66403;50.832;10.950;2023-03-14T23:58:01;0.65;;;0.50;;
